Time;durP1;ratioP1;P1;durP2;ratioP2;P2;SDS_P1;SDS_P2;PMS_P1;PMS_P2;Temp;Humidity;BMP_temperature;BMP_pressure;BME280_temperature;BME280_humidity;BME280_pressure;Samples;Min_cycle;Max_cycle;Signal;HPM_P1;HPM_P2
2022/03/29 00:02:26;;;;;;;2.83;1.77;;;20.70;57.90;;;;;;4931245;29;20200;-61
2022/03/29 00:05:02;;;;;;;3.65;1.27;;;20.70;57.80;;;;;;4928214;29;20664;-62
2022/03/29 00:07:34;;;;;;;3.42;1.35;;;20.80;57.70;;;;;;4930037;29;20218;-49
2022/03/29 00:10:06;;;;;;;2.30;1.20;;;20.80;57.60;;;;;;4931128;29;20238;-56
2022/03/29 00:12:38;;;;;;;4.35;1.67;;;20.90;57.60;;;;;;4932242;29;20231;-51
2022/03/29 00:15:10;;;;;;;5.72;1.55;;;20.90;57.50;;;;;;4931015;29;20195;-59
2022/03/29 00:17:40;;;;;;;3.67;1.60;;;20.90;57.40;;;;;;4930842;29;20279;-60
2022/03/29 00:20:11;;;;;;;4.00;1.60;;;21.00;57.50;;;;;;4929316;29;20203;-60
2022/03/29 00:22:44;;;;;;;4.65;2.10;;;21.00;57.40;;;;;;4927996;29;20607;-66
2022/03/29 00:25:15;;;;;;;4.68;1.80;;;21.00;57.40;;;;;;4929476;29;20195;-60
2022/03/29 00:27:45;;;;;;;5.03;1.90;;;21.10;57.40;;;;;;4930648;29;20262;-59
2022/03/29 00:30:17;;;;;;;6.18;2.15;;;21.10;57.40;;;;;;4933226;29;20310;-56
2022/03/29 00:32:48;;;;;;;6.32;2.30;;;21.10;57.40;;;;;;4934547;29;20243;-60
2022/03/29 00:35:18;;;;;;;5.70;2.45;;;21.10;57.40;;;;;;4934712;29;20266;-56
2022/03/29 00:37:51;;;;;;;4.28;2.00;;;21.20;57.50;;;;;;4931773;29;20643;-59
2022/03/29 00:40:22;;;;;;;5.38;2.17;;;21.20;57.50;;;;;;4935672;29;20286;-54
2022/03/29 00:42:52;;;;;;;7.97;1.92;;;21.20;57.50;;;;;;4934351;29;20203;-55
2022/03/29 00:45:23;;;;;;;3.42;1.85;;;21.20;57.50;;;;;;4932911;29;20330;-63
2022/03/29 00:47:54;;;;;;;4.53;2.08;;;21.20;57.50;;;;;;4934641;29;20310;-56
2022/03/29 00:50:24;;;;;;;7.18;2.13;;;21.30;57.40;;;;;;4934372;29;20227;-55
2022/03/29 00:52:57;;;;;;;4.72;1.65;;;21.30;57.30;;;;;;4934798;29;20294;-60
2022/03/29 00:55:28;;;;;;;3.63;2.17;;;21.30;57.20;;;;;;4934538;29;20223;-58
2022/03/29 00:58:01;;;;;;;5.82;1.90;;;21.40;57.20;;;;;;4930119;29;20629;-61
2022/03/29 01:00:33;;;;;;;5.30;1.85;;;21.40;57.20;;;;;;4934213;29;20204;-56
2022/03/29 01:03:04;;;;;;;4.38;1.67;;;21.40;57.10;;;;;;4933736;29;20204;-63
2022/03/29 01:05:35;;;;;;;4.63;1.70;;;21.40;57.10;;;;;;4934705;29;20223;-54
2022/03/29 01:08:08;;;;;;;5.13;2.13;;;21.50;57.10;;;;;;4934287;29;20274;-66
2022/03/29 01:10:39;;;;;;;5.20;2.13;;;21.50;57.10;;;;;;4934873;29;20195;-63
2022/03/29 01:13:13;;;;;;;3.58;1.73;;;21.50;57.20;;;;;;4933742;29;20227;-60
2022/03/29 01:15:45;;;;;;;5.07;1.73;;;21.60;57.20;;;;;;4930687;29;20271;-55
2022/03/29 01:18:18;;;;;;;4.78;2.20;;;21.60;57.30;;;;;;4933739;29;20753;-49
2022/03/29 01:20:51;;;;;;;5.38;1.80;;;21.60;57.20;;;;;;4934674;29;20208;-55
2022/03/29 01:23:24;;;;;;;5.68;1.90;;;21.60;57.20;;;;;;4933033;29;20196;-63
2022/03/29 01:25:55;;;;;;;3.50;1.60;;;21.70;57.30;;;;;;4934855;29;20203;-60
2022/03/29 01:28:26;;;;;;;4.95;1.98;;;21.70;57.30;;;;;;4934416;29;20703;-68
2022/03/29 01:30:57;;;;;;;5.15;1.92;;;21.70;57.30;;;;;;4934266;29;20200;-58
2022/03/29 01:33:29;;;;;;;5.00;1.92;;;21.70;57.30;;;;;;4934085;29;20223;-47
2022/03/29 01:36:01;;;;;;;4.63;1.63;;;21.80;57.30;;;;;;4934022;29;20231;-63
2022/03/29 01:38:33;;;;;;;4.82;1.95;;;21.80;57.30;;;;;;4933688;29;20350;-48
2022/03/29 01:41:05;;;;;;;4.53;1.90;;;21.80;57.20;;;;;;4933750;29;20207;-55
2022/03/29 01:43:36;;;;;;;3.17;1.45;;;21.80;57.10;;;;;;4933519;29;20200;-52
2022/03/29 01:46:07;;;;;;;4.07;1.70;;;21.90;57.00;;;;;;4933164;29;20743;-63
2022/03/29 01:48:38;;;;;;;2.90;1.60;;;21.90;56.90;;;;;;4934285;29;20573;-59
2022/03/29 01:51:10;;;;;;;3.17;1.27;;;21.90;56.90;;;;;;4933770;29;20731;-60
2022/03/29 01:53:46;;;;;;;3.28;1.50;;;21.90;56.90;;;;;;4933613;29;20607;-61
2022/03/29 01:56:16;;;;;;;2.90;1.52;;;22.00;56.80;;;;;;4933610;29;20205;-53
2022/03/29 01:58:47;;;;;;;2.63;1.35;;;22.00;56.80;;;;;;4933479;29;20294;-56
2022/03/29 02:01:18;;;;;;;2.95;1.50;;;22.00;56.70;;;;;;4933367;29;20647;-52
2022/03/29 02:03:48;;;;;;;3.70;1.42;;;22.00;56.70;;;;;;4933916;29;20196;-59
2022/03/29 02:06:19;;;;;;;2.33;1.42;;;22.10;56.70;;;;;;4932976;29;20299;-59
2022/03/29 02:08:51;;;;;;;2.05;1.30;;;22.10;56.70;;;;;;4933317;29;20255;-55
2022/03/29 02:11:23;;;;;;;4.55;1.55;;;22.20;56.60;;;;;;4933010;29;20258;-60
2022/03/29 02:13:54;;;;;;;2.22;1.17;;;22.20;56.50;;;;;;4930910;29;20330;-49
2022/03/29 02:16:24;;;;;;;2.63;1.30;;;22.20;56.30;;;;;;4932929;29;20203;-53
2022/03/29 02:18:55;;;;;;;2.08;1.10;;;22.20;56.30;;;;;;4931740;29;20211;-59
2022/03/29 02:21:25;;;;;;;1.67;0.90;;;22.20;56.10;;;;;;4932905;29;20243;-69
2022/03/29 02:23:57;;;;;;;2.53;1.17;;;22.20;56.10;;;;;;4933202;29;20255;-68
2022/03/29 02:26:28;;;;;;;3.40;1.33;;;22.30;56.10;;;;;;4933725;29;20192;-58
2022/03/29 02:28:59;;;;;;;1.83;1.13;;;22.30;56.10;;;;;;4931541;29;20242;-49
2022/03/29 02:31:29;;;;;;;3.10;1.15;;;22.30;56.10;;;;;;4932803;29;20195;-58
2022/03/29 02:34:00;;;;;;;2.95;1.25;;;22.30;56.00;;;;;;4933197;29;20223;-58
2022/03/29 02:36:30;;;;;;;3.03;1.23;;;22.40;56.00;;;;;;4932181;29;20200;-47
2022/03/29 02:39:05;;;;;;;3.33;1.27;;;22.40;56.00;;;;;;4930457;29;20227;-60
2022/03/29 02:41:36;;;;;;;1.45;1.00;;;22.40;55.90;;;;;;4932861;29;20582;-64
2022/03/29 02:44:06;;;;;;;1.85;1.10;;;22.50;55.90;;;;;;4932329;29;20204;-65
2022/03/29 02:46:37;;;;;;;2.58;1.15;;;22.50;55.80;;;;;;4932411;29;20298;-60
2022/03/29 02:49:08;;;;;;;2.53;1.13;;;22.50;55.80;;;;;;4931806;29;20215;-63
2022/03/29 02:51:39;;;;;;;2.97;1.23;;;22.50;55.70;;;;;;4932725;29;20207;-61
2022/03/29 02:54:11;;;;;;;2.08;1.23;;;22.60;55.70;;;;;;4932325;29;20227;-51
2022/03/29 02:56:44;;;;;;;3.67;1.20;;;22.60;55.60;;;;;;4932504;29;20247;-59
2022/03/29 02:59:15;;;;;;;1.83;0.80;;;22.60;55.50;;;;;;4932238;29;20199;-61
2022/03/29 03:01:46;;;;;;;2.72;1.40;;;22.60;55.40;;;;;;4931664;29;20251;-60
2022/03/29 03:04:16;;;;;;;3.13;1.25;;;22.70;55.50;;;;;;4932086;29;20203;-66
2022/03/29 03:06:47;;;;;;;3.08;1.10;;;22.70;55.40;;;;;;4932200;29;20270;-57
2022/03/29 03:09:19;;;;;;;2.63;1.10;;;22.70;55.30;;;;;;4932549;29;20236;-60
2022/03/29 03:11:50;;;;;;;1.70;1.08;;;22.80;55.40;;;;;;4929801;29;20251;-54
2022/03/29 03:14:20;;;;;;;2.92;1.30;;;22.80;55.30;;;;;;4931591;29;20231;-61
2022/03/29 03:16:51;;;;;;;2.28;1.20;;;22.80;55.20;;;;;;4931001;29;20263;-57
2022/03/29 03:19:22;;;;;;;1.58;1.08;;;22.80;55.10;;;;;;4931991;29;20216;-60
2022/03/29 03:21:52;;;;;;;2.00;1.02;;;22.90;55.10;;;;;;4932437;29;20218;-54
2022/03/29 03:24:24;;;;;;;2.67;0.98;;;22.90;55.10;;;;;;4930922;29;20278;-57
2022/03/29 03:26:55;;;;;;;3.05;1.05;;;22.90;55.10;;;;;;4931187;29;20207;-55
2022/03/29 03:29:26;;;;;;;1.80;0.90;;;22.90;55.10;;;;;;4931479;29;20225;-64
2022/03/29 03:31:56;;;;;;;2.22;0.88;;;22.90;55.10;;;;;;4931390;29;20477;-60
2022/03/29 03:34:27;;;;;;;2.15;0.90;;;23.00;55.10;;;;;;4931417;29;20227;-54
2022/03/29 03:36:58;;;;;;;2.20;0.85;;;23.00;55.00;;;;;;4931464;29;20195;-66
2022/03/29 03:39:32;;;;;;;1.50;0.95;;;23.00;55.00;;;;;;4932487;29;20196;-55
2022/03/29 03:42:03;;;;;;;1.13;0.70;;;23.00;55.00;;;;;;4931240;29;20204;-56
2022/03/29 03:44:33;;;;;;;2.60;1.00;;;23.00;54.90;;;;;;4931424;29;20632;-53
2022/03/29 03:47:04;;;;;;;2.83;1.10;;;23.00;54.90;;;;;;4931819;29;20207;-52
2022/03/29 03:49:35;;;;;;;2.42;1.02;;;23.00;54.90;;;;;;4931175;29;20227;-54
2022/03/29 03:52:07;;;;;;;1.63;0.80;;;23.00;54.90;;;;;;4931878;29;20227;-64
2022/03/29 03:54:39;;;;;;;2.13;0.95;;;23.00;54.80;;;;;;4930510;29;20761;-63
2022/03/29 03:57:13;;;;;;;2.17;1.00;;;23.00;54.60;;;;;;4931907;29;20219;-67
2022/03/29 03:59:45;;;;;;;1.75;0.70;;;23.10;54.60;;;;;;4931325;29;20195;-59
2022/03/29 04:02:15;;;;;;;1.00;0.70;;;23.10;54.70;;;;;;4931600;29;20200;-54
2022/03/29 04:04:46;;;;;;;3.22;0.90;;;23.10;54.70;;;;;;4930432;29;20211;-56
2022/03/29 04:07:16;;;;;;;1.60;0.80;;;23.10;54.70;;;;;;4931109;29;20220;-58
2022/03/29 04:09:49;;;;;;;1.70;0.90;;;23.10;54.80;;;;;;4928568;29;20243;-51
2022/03/29 04:12:19;;;;;;;2.30;1.02;;;23.10;54.80;;;;;;4930523;29;20195;-51
2022/03/29 04:14:50;;;;;;;2.78;0.80;;;23.10;54.70;;;;;;4931092;29;20227;-51
2022/03/29 04:17:20;;;;;;;3.15;0.90;;;23.10;54.70;;;;;;4930582;29;20302;-59
2022/03/29 04:19:51;;;;;;;2.20;0.80;;;23.10;54.70;;;;;;4931587;29;20266;-53
2022/03/29 04:22:22;;;;;;;1.30;0.80;;;23.10;54.70;;;;;;4930352;29;20203;-59
2022/03/29 04:24:54;;;;;;;3.28;1.00;;;23.10;54.60;;;;;;4931046;29;20200;-61
2022/03/29 04:27:25;;;;;;;1.73;0.90;;;23.10;54.60;;;;;;4930724;29;20223;-57
2022/03/29 04:29:55;;;;;;;2.35;1.00;;;23.10;54.60;;;;;;4930561;29;20278;-55
2022/03/29 04:32:26;;;;;;;2.13;0.77;;;23.10;55.10;;;;;;4929825;29;20296;-54
2022/03/29 04:34:56;;;;;;;2.17;1.05;;;23.10;54.50;;;;;;4926186;29;20227;-57
2022/03/29 04:37:27;;;;;;;2.30;0.90;;;23.10;54.60;;;;;;4929968;29;20260;-57
2022/03/29 04:39:59;;;;;;;2.10;0.70;;;23.10;54.50;;;;;;4931487;29;20267;-52
2022/03/29 04:42:29;;;;;;;2.65;0.90;;;23.10;54.40;;;;;;4928257;29;20195;-60
2022/03/29 04:45:00;;;;;;;2.15;0.80;;;23.20;54.40;;;;;;4929955;29;20314;-58
2022/03/29 04:47:31;;;;;;;3.10;1.00;;;23.10;54.30;;;;;;4931250;29;20259;-57
2022/03/29 04:50:01;;;;;;;3.65;1.00;;;23.10;54.20;;;;;;4930901;29;20266;-54
2022/03/29 04:52:32;;;;;;;1.63;0.88;;;23.10;54.20;;;;;;4931045;29;20192;-60
2022/03/29 04:55:04;;;;;;;3.53;1.00;;;23.10;54.30;;;;;;4930550;29;20219;-57
2022/03/29 04:57:35;;;;;;;1.25;0.80;;;23.10;54.30;;;;;;4930858;29;20644;-57
2022/03/29 05:00:06;;;;;;;1.77;0.80;;;23.10;54.30;;;;;;4930863;29;20719;-55
2022/03/29 05:02:41;;;;;;;1.80;0.90;;;23.10;54.30;;;;;;4930978;29;20410;-58
2022/03/29 05:05:12;;;;;;;1.75;0.90;;;23.10;54.40;;;;;;4930941;29;20234;-59
2022/03/29 05:07:46;;;;;;;1.60;1.10;;;23.10;54.40;;;;;;4929919;29;20334;-56
2022/03/29 05:10:18;;;;;;;2.80;1.27;;;23.10;54.40;;;;;;4930948;29;20251;-55
2022/03/29 05:12:51;;;;;;;3.17;1.48;;;23.00;54.40;;;;;;4930327;29;20387;-58
2022/03/29 05:15:22;;;;;;;1.95;1.50;;;23.00;54.40;;;;;;4926982;29;20196;-61
2022/03/29 05:17:53;;;;;;;1.83;1.30;;;23.00;54.40;;;;;;4934213;29;20796;-55
2022/03/29 05:20:24;;;;;;;2.65;2.17;;;23.00;55.10;;;;;;4932247;29;20250;-54
2022/03/29 05:22:56;;;;;;;3.95;2.50;;;23.00;54.40;;;;;;4933341;29;20702;-62
2022/03/29 05:25:29;;;;;;;2.72;2.20;;;23.00;54.40;;;;;;4933215;29;20198;-58
2022/03/29 05:27:59;;;;;;;2.65;2.17;;;23.00;54.50;;;;;;4934360;29;20699;-55
2022/03/29 05:30:30;;;;;;;3.30;2.40;;;23.00;54.50;;;;;;4933083;29;20211;-56
2022/03/29 05:33:01;;;;;;;2.28;1.55;;;23.00;54.40;;;;;;4933267;29;20263;-53
2022/03/29 05:35:35;;;;;;;3.72;2.38;;;23.00;54.50;;;;;;4933426;29;20231;-53
2022/03/29 05:38:07;;;;;;;3.55;2.20;;;23.00;54.50;;;;;;4932132;29;20211;-58
2022/03/29 05:40:39;;;;;;;4.10;1.90;;;23.00;54.50;;;;;;4934046;29;20282;-60
2022/03/29 05:43:13;;;;;;;3.30;1.67;;;22.90;54.40;;;;;;4934000;29;20196;-53
2022/03/29 05:48:51;;;;;;;4.22;2.20;;;22.90;54.40;;;;;;4933912;29;20250;-62
2022/03/29 05:51:22;;;;;;;2.63;2.25;;;22.90;54.40;;;;;;4934030;29;20210;-59
2022/03/29 05:53:53;;;;;;;2.72;2.05;;;22.90;54.30;;;;;;4932921;29;20291;-56
2022/03/29 05:56:26;;;;;;;2.92;2.35;;;22.90;54.40;;;;;;4932442;29;20208;-61
2022/03/29 05:58:57;;;;;;;2.28;2.00;;;22.80;54.40;;;;;;4933490;29;20639;-60
2022/03/29 06:01:28;;;;;;;2.65;2.00;;;22.80;54.40;;;;;;4933499;29;20206;-62
2022/03/29 06:03:58;;;;;;;3.03;2.13;;;22.80;54.40;;;;;;4933269;29;20196;-51
2022/03/29 06:06:29;;;;;;;2.88;2.17;;;22.80;54.50;;;;;;4933167;29;20607;-61
2022/03/29 06:08:59;;;;;;;3.70;1.98;;;22.80;54.60;;;;;;4932720;29;20211;-55
2022/03/29 06:11:31;;;;;;;3.10;2.30;;;22.80;54.50;;;;;;4931739;29;20196;-56
2022/03/29 06:14:02;;;;;;;2.42;2.22;;;22.70;54.40;;;;;;4932921;29;20236;-59
2022/03/29 06:16:33;;;;;;;3.28;2.25;;;22.70;54.40;;;;;;4933220;29;20203;-56
2022/03/29 06:19:04;;;;;;;2.45;1.80;;;22.70;54.30;;;;;;4933500;29;20223;-50
2022/03/29 06:21:35;;;;;;;2.00;1.80;;;22.70;54.30;;;;;;4932454;29;20207;-61
2022/03/29 06:24:06;;;;;;;2.33;2.00;;;22.70;54.40;;;;;;4933582;29;20195;-66
2022/03/29 06:26:42;;;;;;;1.98;1.80;;;22.80;54.50;;;;;;4932765;29;20227;-61
2022/03/29 06:29:13;;;;;;;2.70;1.70;;;22.70;54.50;;;;;;4932270;29;20273;-55
2022/03/29 06:31:46;;;;;;;1.90;1.73;;;22.70;54.50;;;;;;4932805;29;20195;-63
2022/03/29 06:34:17;;;;;;;2.28;2.08;;;22.60;54.50;;;;;;4932837;29;20232;-59
2022/03/29 06:36:47;;;;;;;2.30;1.90;;;22.60;54.50;;;;;;4930415;29;20208;-56
2022/03/29 06:39:20;;;;;;;2.70;2.38;;;22.60;54.50;;;;;;4933373;29;20685;-58
2022/03/29 06:41:54;;;;;;;2.65;1.70;;;22.60;54.60;;;;;;4932716;29;20230;-63
2022/03/29 06:44:25;;;;;;;2.35;1.95;;;22.60;55.20;;;;;;4932574;29;20745;-59
2022/03/29 06:46:57;;;;;;;2.85;1.90;;;22.60;54.60;;;;;;4918897;29;20196;-60
2022/03/29 06:49:27;;;;;;;2.60;1.80;;;22.60;54.60;;;;;;4914658;29;20203;-57
2022/03/29 06:51:58;;;;;;;2.00;1.80;;;22.60;54.60;;;;;;4915225;29;20224;-55
2022/03/29 06:54:30;;;;;;;2.88;1.90;;;22.50;54.50;;;;;;4914580;29;20327;-56
2022/03/29 06:57:03;;;;;;;3.53;1.95;;;22.50;54.50;;;;;;4914810;29;20219;-60
2022/03/29 06:59:33;;;;;;;2.63;1.95;;;22.50;54.50;;;;;;4914762;29;20259;-57
2022/03/29 07:02:04;;;;;;;1.98;1.70;;;22.50;54.50;;;;;;4913121;29;20598;-56
2022/03/29 07:04:35;;;;;;;4.10;2.13;;;22.50;54.60;;;;;;4914259;29;20204;-54
2022/03/29 07:07:06;;;;;;;2.13;1.63;;;22.50;54.50;;;;;;4913907;29;20291;-62
2022/03/29 07:12:25;;;;;;;2.05;1.73;;;22.50;54.50;;;;;;4915086;29;20195;-55
2022/03/29 07:14:55;;;;;;;3.83;2.10;;;22.40;54.40;;;;;;4914193;29;20227;-67
2022/03/29 07:17:26;;;;;;;3.13;1.92;;;22.40;54.40;;;;;;4914153;29;20275;-60
2022/03/29 07:19:56;;;;;;;2.33;1.60;;;22.40;54.50;;;;;;4914606;29;20204;-56
2022/03/29 07:22:27;;;;;;;2.85;1.73;;;22.40;54.50;;;;;;4914373;29;20259;-58
2022/03/29 07:24:57;;;;;;;1.63;1.52;;;22.40;54.50;;;;;;4914436;29;20244;-56
2022/03/29 07:27:30;;;;;;;1.75;1.65;;;22.40;54.60;;;;;;4914128;29;20268;-57
2022/03/29 07:30:03;;;;;;;2.08;1.85;;;22.40;54.60;;;;;;4913954;29;20283;-57
2022/03/29 07:32:34;;;;;;;2.15;1.67;;;22.40;54.60;;;;;;4913874;29;20201;-62
2022/03/29 07:35:05;;;;;;;1.75;1.50;;;22.30;54.60;;;;;;4914251;29;20323;-59
2022/03/29 07:37:35;;;;;;;2.53;1.80;;;22.30;54.60;;;;;;4914377;29;20227;-62
2022/03/29 07:40:08;;;;;;;1.65;1.52;;;22.30;54.60;;;;;;4914641;29;20256;-62
2022/03/29 07:42:40;;;;;;;2.10;1.90;;;22.30;54.60;;;;;;4914283;29;20206;-62
2022/03/29 07:45:12;;;;;;;2.05;1.67;;;22.30;54.60;;;;;;4913834;29;20236;-62
2022/03/29 07:47:43;;;;;;;1.90;1.70;;;22.30;54.60;;;;;;4913826;29;20250;-55
2022/03/29 07:50:14;;;;;;;1.77;1.55;;;22.30;54.60;;;;;;4914349;29;20224;-59
2022/03/29 07:52:45;;;;;;;2.53;1.80;;;22.20;54.60;;;;;;4914724;29;20596;-67
2022/03/29 07:55:16;;;;;;;2.13;1.67;;;22.20;54.60;;;;;;4914219;29;20231;-59
2022/03/29 07:57:48;;;;;;;1.98;1.70;;;22.20;54.60;;;;;;4913742;29;20224;-58
2022/03/29 08:00:35;;;;;;;1.90;1.70;;;22.20;54.60;;;;;;4913847;29;20267;-54
2022/03/29 08:03:08;;;;;;;2.13;1.77;;;22.20;54.60;;;;;;4913685;29;20236;-68
2022/03/29 08:05:42;;;;;;;1.88;1.70;;;22.20;54.60;;;;;;4913443;29;20195;-59
2022/03/29 08:08:13;;;;;;;1.73;1.48;;;22.20;54.60;;;;;;4913513;29;20249;-56
2022/03/29 08:10:44;;;;;;;2.10;1.65;;;22.20;54.60;;;;;;4914275;29;20203;-62
2022/03/29 08:13:20;;;;;;;1.90;1.77;;;22.20;54.60;;;;;;4913858;29;20263;-65
2022/03/29 08:15:53;;;;;;;2.15;1.85;;;22.10;54.60;;;;;;4913262;29;20319;-51
2022/03/29 08:18:25;;;;;;;2.05;1.65;;;22.20;54.70;;;;;;4912377;29;20215;-64
2022/03/29 08:20:56;;;;;;;1.98;1.83;;;22.20;54.70;;;;;;4913576;29;20210;-61
2022/03/29 08:23:27;;;;;;;4.15;2.22;;;22.10;54.80;;;;;;4913902;29;20200;-58
2022/03/29 08:25:57;;;;;;;2.35;2.15;;;22.10;55.00;;;;;;4913847;29;20287;-62
2022/03/29 08:28:30;;;;;;;2.45;1.65;;;22.10;55.00;;;;;;4913784;29;20776;-53
2022/03/29 08:31:00;;;;;;;3.10;2.13;;;22.10;55.00;;;;;;4914074;29;20247;-59
2022/03/29 08:33:31;;;;;;;2.13;1.73;;;22.10;55.00;;;;;;4912674;29;20280;-54
2022/03/29 08:36:01;;;;;;;2.63;1.85;;;22.10;55.00;;;;;;4913352;29;20224;-57
2022/03/29 08:38:32;;;;;;;3.45;2.00;;;22.10;55.00;;;;;;4911804;29;20369;-61
2022/03/29 08:41:03;;;;;;;2.58;2.10;;;22.00;55.00;;;;;;4928986;29;20254;-58
2022/03/29 08:43:36;;;;;;;2.15;1.92;;;22.00;55.00;;;;;;4931191;29;20195;-57
2022/03/29 08:46:06;;;;;;;3.40;2.00;;;22.00;55.00;;;;;;4929185;29;20415;-53
2022/03/29 08:48:37;;;;;;;1.83;1.73;;;22.00;55.00;;;;;;4930400;29;20223;-57
2022/03/29 08:51:08;;;;;;;3.00;2.00;;;22.00;55.00;;;;;;4932093;29;20227;-59
2022/03/29 08:53:44;;;;;;;2.70;2.30;;;22.00;55.00;;;;;;4934720;29;20251;-60
2022/03/29 08:56:14;;;;;;;3.05;2.05;;;22.00;55.60;;;;;;4934549;29;20321;-57
2022/03/29 08:58:47;;;;;;;3.03;1.73;;;22.00;55.00;;;;;;4935254;29;20301;-58
2022/03/29 09:01:19;;;;;;;2.88;1.70;;;22.00;55.00;;;;;;4932944;29;20251;-59
2022/03/29 09:04:05;;;;;;;3.55;1.90;;;22.00;55.00;;;;;;4934348;29;20586;-56
2022/03/29 09:06:35;;;;;;;2.85;1.90;;;22.00;55.00;;;;;;4933648;29;20756;-61
2022/03/29 09:09:06;;;;;;;1.95;1.73;;;21.90;54.90;;;;;;4928283;29;20219;-58
2022/03/29 09:11:47;;;;;;;2.25;1.70;;;21.90;54.90;;;;;;4931166;29;20199;-60
2022/03/29 09:14:20;;;;;;;2.30;1.70;;;21.90;54.90;;;;;;4930708;29;20579;-56
2022/03/29 09:16:51;;;;;;;2.10;1.80;;;21.90;55.00;;;;;;4933084;29;20227;-53
2022/03/29 09:19:25;;;;;;;3.42;1.92;;;21.90;55.10;;;;;;4934907;29;20211;-62
2022/03/29 09:21:58;;;;;;;3.00;1.92;;;21.90;55.00;;;;;;4931724;29;20647;-54
2022/03/29 09:24:30;;;;;;;3.38;2.00;;;21.90;55.00;;;;;;4933810;29;20215;-54
2022/03/29 09:27:01;;;;;;;2.08;1.77;;;21.90;55.00;;;;;;4932080;29;20207;-58
2022/03/29 09:29:34;;;;;;;1.90;1.60;;;21.90;55.00;;;;;;4933783;29;20199;-56
2022/03/29 09:32:14;;;;;;;2.45;1.85;;;21.80;55.00;;;;;;4930672;29;20192;-54
2022/03/29 09:34:45;;;;;;;1.95;1.75;;;21.90;55.00;;;;;;4933487;29;20306;-56
2022/03/29 09:37:16;;;;;;;2.90;2.10;;;21.80;55.00;;;;;;4931790;29;20569;-55
2022/03/29 09:39:50;;;;;;;3.58;2.13;;;21.80;55.00;;;;;;4935053;29;20199;-63
2022/03/29 09:42:21;;;;;;;2.47;2.05;;;21.80;55.00;;;;;;4931926;29;21262;-62
2022/03/29 09:44:56;;;;;;;1.92;1.70;;;21.80;55.00;;;;;;4934440;29;20214;-62
2022/03/29 09:47:29;;;;;;;2.45;2.05;;;21.80;55.00;;;;;;4933367;29;20222;-61
2022/03/29 09:50:02;;;;;;;2.38;2.03;;;21.80;55.00;;;;;;4932397;29;20247;-52
2022/03/29 09:52:33;;;;;;;1.98;1.77;;;21.70;55.00;;;;;;4933519;29;20196;-49
2022/03/29 09:55:22;;;;;;;2.30;2.10;;;21.80;55.00;;;;;;4929596;29;20262;-50
2022/03/29 09:57:55;;;;;;;1.90;1.70;;;21.80;55.00;;;;;;4933531;29;20585;-59
2022/03/29 10:00:39;;;;;;;2.60;2.10;;;21.70;55.00;;;;;;4930209;29;20211;-51
2022/03/29 10:03:12;;;;;;;2.83;2.13;;;21.70;55.00;;;;;;4932109;29;20278;-52
2022/03/29 10:05:43;;;;;;;2.60;1.98;;;21.70;55.00;;;;;;4931565;29;20203;-49
2022/03/29 10:11:16;;;;;;;2.13;1.77;;;21.70;55.00;;;;;;4927016;29;20327;-53
2022/03/29 10:13:48;;;;;;;2.38;1.70;;;21.70;55.00;;;;;;4933162;29;21564;-54
2022/03/29 10:16:20;;;;;;;1.90;1.65;;;21.70;55.00;;;;;;4928805;29;20230;-55
2022/03/29 10:18:51;;;;;;;2.05;1.77;;;21.70;55.10;;;;;;4932638;29;20211;-54
2022/03/29 10:21:21;;;;;;;2.40;1.63;;;21.70;55.10;;;;;;4931351;29;20204;-59
2022/03/29 10:23:52;;;;;;;1.92;1.77;;;21.60;55.10;;;;;;4933490;29;20192;-60
2022/03/29 10:26:25;;;;;;;2.35;1.75;;;21.70;55.10;;;;;;4932662;29;20192;-65
2022/03/29 10:28:55;;;;;;;2.97;1.95;;;21.60;55.10;;;;;;4929931;29;20266;-62
2022/03/29 10:31:36;;;;;;;2.88;2.05;;;21.60;55.10;;;;;;4929566;29;20266;-53
2022/03/29 10:34:21;;;;;;;2.40;1.80;;;21.60;55.10;;;;;;4930351;29;20199;-53
2022/03/29 10:37:13;;;;;;;2.08;1.55;;;21.60;55.10;;;;;;4932603;29;20231;-56
2022/03/29 10:42:40;;;;;;;2.10;1.90;;;21.60;55.10;;;;;;4911558;29;20216;-56
2022/03/29 10:45:21;;;;;;;2.22;1.42;;;21.60;55.10;;;;;;4911489;29;20208;-54
2022/03/29 10:48:09;;;;;;;1.70;1.60;;;21.60;55.10;;;;;;4913201;29;20220;-51
2022/03/29 10:51:01;;;;;;;1.63;1.52;;;21.60;55.20;;;;;;4910930;29;20204;-53
2022/03/29 10:53:35;;;;;;;1.70;1.60;;;21.60;55.20;;;;;;4911997;29;20196;-56
2022/03/29 10:56:25;;;;;;;1.85;1.50;;;21.60;55.20;;;;;;4907203;29;20766;-53
2022/03/29 10:59:15;;;;;;;1.58;1.48;;;21.50;55.10;;;;;;4911840;29;20248;-52
2022/03/29 11:01:46;;;;;;;2.38;1.55;;;21.50;55.10;;;;;;4897646;29;20265;-53
2022/03/29 11:04:27;;;;;;;1.73;1.63;;;21.50;55.20;;;;;;4897661;29;20201;-54
2022/03/29 11:07:16;;;;;;;2.50;1.80;;;21.50;55.20;;;;;;4895474;29;20264;-54
2022/03/29 11:09:47;;;;;;;2.05;1.67;;;21.50;55.20;;;;;;4895896;29;20204;-53
2022/03/29 11:12:46;;;;;;;2.05;1.83;;;21.50;55.20;;;;;;4895694;29;20536;-51
2022/03/29 11:15:43;;;;;;;1.88;1.67;;;21.50;55.20;;;;;;4894739;29;20228;-50
2022/03/29 11:18:50;;;;;;;1.63;1.52;;;21.40;55.20;;;;;;4893506;29;20256;-57
2022/03/29 11:21:40;;;;;;;2.40;1.58;;;21.50;55.20;;;;;;4894955;29;20209;-52
2022/03/29 11:24:13;;;;;;;1.75;1.52;;;21.40;55.20;;;;;;4896021;29;20209;-53
2022/03/29 11:27:03;;;;;;;2.20;1.40;;;21.40;55.20;;;;;;4895630;29;20205;-54
2022/03/29 11:29:34;;;;;;;1.50;1.30;;;21.40;55.30;;;;;;4895537;29;20284;-56
2022/03/29 11:32:06;;;;;;;1.77;1.60;;;21.40;55.30;;;;;;4895103;29;20278;-50
2022/03/29 11:34:43;;;;;;;1.77;1.50;;;21.40;55.30;;;;;;4895546;29;20607;-56
2022/03/29 11:37:29;;;;;;;2.00;1.50;;;21.40;55.30;;;;;;4895845;29;20269;-52
2022/03/29 12:42:17;;;;;;;1.70;1.60;;;21.20;55.30;;;;;;4929314;29;20214;-58
2022/03/29 12:44:55;;;;;;;1.48;1.17;;;21.20;55.40;;;;;;4932333;29;20203;-60
2022/03/29 12:47:28;;;;;;;1.50;1.40;;;21.20;55.40;;;;;;4931987;29;20223;-59
2022/03/29 12:49:59;;;;;;;1.67;1.35;;;21.20;55.40;;;;;;4932287;29;20647;-59
2022/03/29 12:52:30;;;;;;;1.70;1.48;;;21.10;55.30;;;;;;4932527;29;20663;-59
2022/03/29 12:55:03;;;;;;;1.30;1.20;;;21.10;55.30;;;;;;4932630;29;20203;-63
2022/03/29 12:57:43;;;;;;;1.60;1.40;;;21.10;55.40;;;;;;4931570;29;20251;-61
2022/03/29 13:00:15;;;;;;;1.55;1.40;;;21.10;55.40;;;;;;4921332;29;20664;-59
2022/03/29 13:02:48;;;;;;;1.20;1.10;;;21.10;55.40;;;;;;4913590;29;20200;-59
2022/03/29 13:05:22;;;;;;;1.80;1.10;;;21.10;55.40;;;;;;4913628;29;20292;-60
2022/03/29 13:08:02;;;;;;;1.48;1.20;;;21.10;55.40;;;;;;4913134;29;20263;-62
2022/03/29 13:10:37;;;;;;;1.38;1.27;;;21.10;55.40;;;;;;4914260;29;20200;-62
2022/03/29 13:13:12;;;;;;;1.63;1.10;;;21.10;55.50;;;;;;4918902;29;20202;-55
2022/03/29 13:15:46;;;;;;;1.23;1.13;;;21.00;55.40;;;;;;4912981;29;20238;-62
2022/03/29 13:18:38;;;;;;;1.55;1.25;;;21.10;55.40;;;;;;4912994;29;20219;-56
2022/03/29 13:21:11;;;;;;;1.50;1.35;;;21.10;55.40;;;;;;4911959;29;20231;-57
2022/03/29 13:23:43;;;;;;;1.58;1.40;;;21.00;55.40;;;;;;4913065;29;20826;-54
2022/03/29 13:26:15;;;;;;;1.08;1.00;;;21.10;55.40;;;;;;4919109;29;20203;-56
2022/03/29 13:28:48;;;;;;;1.20;1.10;;;21.00;55.40;;;;;;4931820;29;20695;-64
2022/03/29 13:31:19;;;;;;;1.52;1.33;;;21.00;55.40;;;;;;4894119;29;20208;-55
2022/03/29 13:33:51;;;;;;;1.17;1.08;;;21.00;55.40;;;;;;4894282;29;20265;-53
2022/03/29 13:36:23;;;;;;;1.42;1.20;;;21.00;55.50;;;;;;4894299;29;20280;-55
2022/03/29 13:38:55;;;;;;;1.88;1.58;;;21.00;55.50;;;;;;4897573;29;20689;-60
2022/03/29 13:41:26;;;;;;;1.45;1.30;;;21.00;55.50;;;;;;4911911;29;20203;-60
2022/03/29 13:44:00;;;;;;;1.50;1.40;;;21.00;55.50;;;;;;4935421;29;20200;-52
2022/03/29 13:46:31;;;;;;;1.38;1.17;;;21.00;55.50;;;;;;4935040;29;20199;-55
2022/03/29 13:49:02;;;;;;;1.70;1.30;;;21.00;55.50;;;;;;4935106;29;20224;-59
2022/03/29 13:51:34;;;;;;;1.08;0.98;;;20.90;55.50;;;;;;4935356;29;20672;-61
2022/03/29 13:54:05;;;;;;;1.27;1.15;;;20.90;55.50;;;;;;4935543;29;20648;-62
2022/03/29 13:56:35;;;;;;;1.50;1.33;;;20.90;55.50;;;;;;4934343;29;20227;-62
2022/03/29 13:59:11;;;;;;;1.17;1.08;;;20.90;55.50;;;;;;4933257;29;20314;-54
2022/03/29 14:01:43;;;;;;;1.50;1.35;;;20.90;55.50;;;;;;4915664;29;20195;-58
2022/03/29 14:04:13;;;;;;;1.80;1.33;;;20.90;55.50;;;;;;4921488;29;20191;-58
2022/03/29 14:06:44;;;;;;;1.13;1.02;;;20.90;55.50;;;;;;4935107;29;20271;-61
2022/03/29 14:09:14;;;;;;;2.00;1.30;;;20.90;55.50;;;;;;4935020;29;20227;-56
2022/03/29 14:11:45;;;;;;;1.30;1.20;;;20.90;55.50;;;;;;4934029;29;20263;-65
2022/03/29 14:14:17;;;;;;;1.65;1.30;;;20.90;55.50;;;;;;4934809;29;20196;-66
2022/03/29 14:16:48;;;;;;;1.20;1.10;;;20.80;55.50;;;;;;4934394;29;20227;-59
2022/03/29 14:19:19;;;;;;;1.40;1.30;;;20.80;55.50;;;;;;4930221;29;20236;-62
2022/03/29 14:21:49;;;;;;;1.50;1.08;;;20.80;55.50;;;;;;4896868;29;20257;-55
2022/03/29 14:24:20;;;;;;;1.35;1.25;;;20.90;55.50;;;;;;4897192;29;20204;-59
2022/03/29 14:26:51;;;;;;;1.23;1.10;;;20.80;55.50;;;;;;4913604;29;20199;-60
2022/03/29 14:29:23;;;;;;;1.27;1.17;;;20.80;55.60;;;;;;4931263;29;20204;-62
2022/03/29 14:31:54;;;;;;;2.15;1.25;;;20.80;55.50;;;;;;4915568;29;20207;-64